Time;durP1;ratioP1;P1;durP2;ratioP2;P2;SDS_P1;SDS_P2;PMS_P1;PMS_P2;Temp;Humidity;BMP_temperature;BMP_pressure;BME280_temperature;BME280_humidity;BME280_pressure;Samples;Min_cycle;Max_cycle;Signal;HPM_P1;HPM_P2
2023/04/12 00:01:30;;;;;;;;;;;;;;;10.75;94.59;99326.88;7359787;19;19919;-70
2023/04/12 00:03:58;;;;;;;;;;;;;;;10.72;93.89;99324.59;7360692;19;19919;-67
2023/04/12 00:06:31;;;;;;;;;;;;;;;10.70;93.80;99314.28;7359150;19;19982;-67
2023/04/12 00:08:59;;;;;;;;;;;;;;;10.68;93.62;99307.56;7365429;19;19939;-69
2023/04/12 00:11:27;;;;;;;;;;;;;;;10.72;93.94;99314.88;7358280;19;20265;-68
2023/04/12 00:13:54;;;;;;;;;;;;;;;10.70;93.54;99306.41;7366120;19;20054;-67
2023/04/12 00:16:21;;;;;;;;;;;;;;;10.70;93.42;99305.56;7356622;19;19923;-66
2023/04/12 00:18:50;;;;;;;;;;;;;;;10.73;93.74;99311.25;7360614;19;19929;-66
2023/04/12 00:21:18;;;;;;;;;;;;;;;10.75;93.48;99305.00;7357291;19;19922;-67
2023/04/12 00:23:46;;;;;;;;;;;;;;;10.80;93.71;99310.50;7359603;19;20360;-68
2023/04/12 00:26:14;;;;;;;;;;;;;;;10.83;93.33;99305.66;7358005;19;19926;-69
2023/04/12 00:28:42;;;;;;;;;;;;;;;10.85;92.85;99303.66;7362814;19;19927;-67
2023/04/12 00:31:10;;;;;;;;;;;;;;;10.87;92.55;99298.22;7357101;19;20454;-66
2023/04/12 00:33:37;;;;;;;;;;;;;;;10.88;92.36;99305.06;7363381;19;19946;-66
2023/04/12 00:36:04;;;;;;;;;;;;;;;10.89;92.08;99293.56;7356192;19;20332;-68
2023/04/12 00:38:31;;;;;;;;;;;;;;;10.92;91.67;99287.94;7360919;19;19911;-66
2023/04/12 00:40:59;;;;;;;;;;;;;;;10.89;91.65;99285.66;7358797;19;20345;-66
2023/04/12 00:43:26;;;;;;;;;;;;;;;10.85;91.09;99273.91;7360755;19;20276;-67
2023/04/12 00:45:53;;;;;;;;;;;;;;;10.81;90.59;99278.75;7359581;19;19935;-65
2023/04/12 00:48:20;;;;;;;;;;;;;;;10.79;90.71;99275.50;7358285;19;20379;-65
2023/04/12 00:50:47;;;;;;;;;;;;;;;10.72;90.38;99272.00;7359930;19;19918;-64
2023/04/12 00:53:16;;;;;;;;;;;;;;;10.73;90.83;99278.88;7359962;19;19915;-64
2023/04/12 00:55:44;;;;;;;;;;;;;;;10.76;91.05;99288.22;7359103;19;19938;-64
2023/04/12 00:58:13;;;;;;;;;;;;;;;10.79;90.71;99301.78;7362397;19;20341;-65
2023/04/12 01:00:40;;;;;;;;;;;;;;;10.80;90.36;99308.69;7354640;19;20333;-65
2023/04/12 01:03:07;;;;;;;;;;;;;;;10.86;90.62;99312.38;7359000;19;19960;-65
2023/04/12 01:05:39;;;;;;;;;;;;;;;10.88;90.36;99315.59;7356994;19;19923;-65
2023/04/12 01:08:10;;;;;;;;;;;;;;;10.93;90.36;99307.94;7360279;19;19930;-67
2023/04/12 01:10:39;;;;;;;;;;;;;;;10.92;90.00;99301.88;7354816;19;19969;-65
2023/04/12 01:13:09;;;;;;;;;;;;;;;10.93;90.01;99302.69;7356611;19;20618;-64
2023/04/12 01:15:38;;;;;;;;;;;;;;;10.94;89.68;99309.56;7353949;19;20008;-63
2023/04/12 01:18:08;;;;;;;;;;;;;;;10.95;89.12;99305.94;7355659;19;20732;-64
2023/04/12 01:20:43;;;;;;;;;;;;;;;10.97;88.77;99303.94;7356341;19;19923;-65
2023/04/12 01:23:13;;;;;;;;;;;;;;;10.94;87.98;99296.41;7357530;19;19923;-65
2023/04/12 01:25:43;;;;;;;;;;;;;;;10.90;87.15;99295.19;7355762;19;19952;-65
2023/04/12 01:28:13;;;;;;;;;;;;;;;10.84;86.61;99288.06;7359923;19;19923;-64
2023/04/12 01:30:41;;;;;;;;;;;;;;;10.82;86.48;99284.81;7360601;19;19922;-64
2023/04/12 01:33:10;;;;;;;;;;;;;;;10.77;85.89;99282.75;7359146;19;20495;-65
2023/04/12 01:35:38;;;;;;;;;;;;;;;10.73;85.62;99290.22;7354802;19;20262;-65
2023/04/12 01:38:05;;;;;;;;;;;;;;;10.73;85.70;99294.66;7357338;19;19970;-66
2023/04/12 01:40:34;;;;;;;;;;;;;;;10.70;85.09;99295.88;7355993;19;19947;-65
2023/04/12 01:43:04;;;;;;;;;;;;;;;10.65;84.74;99298.25;7357945;19;19938;-65
2023/04/12 01:45:31;;;;;;;;;;;;;;;10.64;84.30;99296.63;7355134;19;19911;-65
2023/04/12 01:47:59;;;;;;;;;;;;;;;10.65;84.35;99294.81;7354751;19;19919;-65
2023/04/12 01:50:32;;;;;;;;;;;;;;;10.64;84.37;99288.75;7359239;19;19948;-67
2023/04/12 01:52:59;;;;;;;;;;;;;;;10.63;84.49;99295.00;7360005;19;19919;-65
2023/04/12 01:55:28;;;;;;;;;;;;;;;10.63;84.68;99294.19;7359251;19;19926;-64
2023/04/12 01:57:56;;;;;;;;;;;;;;;10.61;84.66;99297.03;7357139;19;19931;-64
2023/04/12 02:00:24;;;;;;;;;;;;;;;10.60;85.21;99289.31;7359939;19;19946;-66
2023/04/12 02:02:51;;;;;;;;;;;;;;;10.59;84.91;99291.13;7357110;19;20136;-64
2023/04/12 02:05:19;;;;;;;;;;;;;;;10.56;83.98;99296.78;7356526;19;19931;-65
2023/04/12 02:07:47;;;;;;;;;;;;;;;10.54;84.19;99297.97;7352530;19;19958;-64
2023/04/12 02:10:14;;;;;;;;;;;;;;;10.53;84.53;99298.97;7359903;19;19915;-64
2023/04/12 02:12:41;;;;;;;;;;;;;;;10.49;84.33;99298.53;7357286;19;19933;-64
2023/04/12 02:15:08;;;;;;;;;;;;;;;10.46;83.81;99293.66;7354984;19;20253;-64
2023/04/12 02:17:36;;;;;;;;;;;;;;;10.47;83.40;99291.81;7351683;19;20236;-64
2023/04/12 02:20:06;;;;;;;;;;;;;;;10.45;82.29;99291.22;7357998;19;20180;-65
2023/04/12 02:22:33;;;;;;;;;;;;;;;10.43;82.41;99278.25;7351356;19;20195;-65
2023/04/12 02:25:01;;;;;;;;;;;;;;;10.46;83.35;99287.59;7358212;19;19951;-64
2023/04/12 02:27:28;;;;;;;;;;;;;;;10.47;82.85;99286.56;7355332;19;19946;-64
2023/04/12 02:29:57;;;;;;;;;;;;;;;10.48;82.50;99277.69;7357633;19;19940;-64
2023/04/12 02:32:24;;;;;;;;;;;;;;;10.43;81.58;99267.75;7348371;19;20324;-64
2023/04/12 02:34:51;;;;;;;;;;;;;;;10.41;80.93;99271.59;7350381;19;21652;-65
2023/04/12 02:37:20;;;;;;;;;;;;;;;10.42;81.97;99271.38;7353074;19;19923;-65
2023/04/12 02:39:48;;;;;;;;;;;;;;;10.42;81.82;99267.91;7354820;19;20316;-64
2023/04/12 02:42:15;;;;;;;;;;;;;;;10.45;82.79;99276.25;7354010;19;19947;-65
2023/04/12 02:44:46;;;;;;;;;;;;;;;10.43;81.85;99272.19;7351034;19;20274;-64
2023/04/12 02:47:13;;;;;;;;;;;;;;;10.41;81.15;99258.44;7350017;19;20348;-66
2023/04/12 02:49:40;;;;;;;;;;;;;;;10.40;81.03;99262.88;7351630;19;19911;-64
2023/04/12 02:52:08;;;;;;;;;;;;;;;10.42;81.17;99263.47;7345798;19;19971;-65
2023/04/12 02:54:35;;;;;;;;;;;;;;;10.42;81.06;99257.41;7351931;19;20294;-65
2023/04/12 02:57:02;;;;;;;;;;;;;;;10.41;80.70;99258.44;7352032;19;19918;-64
2023/04/12 02:59:29;;;;;;;;;;;;;;;10.36;79.77;99259.00;7353913;19;19921;-63
2023/04/12 03:01:56;;;;;;;;;;;;;;;10.33;79.71;99258.56;7353201;19;19922;-64
2023/04/12 03:04:28;;;;;;;;;;;;;;;10.34;81.62;99247.03;7349526;19;19923;-65
2023/04/12 03:06:56;;;;;;;;;;;;;;;10.32;80.92;99252.47;7347524;19;20033;-64
2023/04/12 03:09:24;;;;;;;;;;;;;;;10.30;80.68;99259.75;7351794;19;19939;-64
2023/04/12 03:11:51;;;;;;;;;;;;;;;10.29;81.33;99260.75;7353319;19;19926;-65
2023/04/12 03:14:18;;;;;;;;;;;;;;;10.27;81.92;99258.31;7353227;19;19918;-64
2023/04/12 03:16:45;;;;;;;;;;;;;;;10.26;81.74;99263.75;7350783;19;19934;-64
2023/04/12 03:19:13;;;;;;;;;;;;;;;10.25;82.10;99265.59;7352562;19;19915;-66
2023/04/12 03:21:40;;;;;;;;;;;;;;;10.24;82.09;99261.34;7352331;19;19922;-64
2023/04/12 03:24:07;;;;;;;;;;;;;;;10.20;81.93;99256.66;7351595;19;20705;-64
2023/04/12 03:26:34;;;;;;;;;;;;;;;10.16;81.54;99248.31;7351212;19;20332;-64
2023/04/12 03:31:34;;;;;;;;;;;;;;;10.16;82.16;99252.75;7351312;19;19919;-64
2023/04/12 03:34:01;;;;;;;;;;;;;;;10.16;82.62;99248.31;7344288;19;20312;-64
2023/04/12 03:36:28;;;;;;;;;;;;;;;10.17;82.84;99252.56;7349192;19;19922;-64
2023/04/12 03:38:55;;;;;;;;;;;;;;;10.13;82.37;99246.03;7352970;19;19955;-64
2023/04/12 03:41:22;;;;;;;;;;;;;;;10.11;82.19;99248.03;7348896;19;19923;-64
2023/04/12 03:43:49;;;;;;;;;;;;;;;10.04;81.44;99239.28;7350474;19;19930;-65
2023/04/12 03:46:16;;;;;;;;;;;;;;;10.02;80.61;99246.53;7351304;19;19919;-64
2023/04/12 03:48:43;;;;;;;;;;;;;;;10.01;80.35;99246.72;7349999;19;21619;-63
2023/04/12 03:51:11;;;;;;;;;;;;;;;9.98;80.34;99240.03;7351429;19;19926;-65
2023/04/12 03:53:38;;;;;;;;;;;;;;;9.98;80.96;99240.03;7350566;19;20609;-63
2023/04/12 03:56:06;;;;;;;;;;;;;;;9.96;81.34;99242.03;7351894;19;19926;-63
2023/04/12 03:58:33;;;;;;;;;;;;;;;9.95;81.21;99235.19;7347261;19;19923;-64
2023/04/12 04:01:04;;;;;;;;;;;;;;;9.97;81.79;99234.97;7350756;19;19922;-65
2023/04/12 04:03:33;;;;;;;;;;;;;;;9.95;81.90;99232.53;7348959;19;19919;-64
2023/04/12 04:06:01;;;;;;;;;;;;;;;9.92;81.49;99234.72;7345869;19;19919;-64
2023/04/12 04:08:29;;;;;;;;;;;;;;;9.84;82.43;99223.34;7352095;19;19919;-65
2023/04/12 04:10:56;;;;;;;;;;;;;;;9.75;81.67;99223.66;7350504;19;19919;-64
2023/04/12 04:13:23;;;;;;;;;;;;;;;9.69;80.86;99219.16;7352689;19;19922;-65
2023/04/12 04:15:55;;;;;;;;;;;;;;;9.64;81.27;99221.53;7346058;19;20298;-65
2023/04/12 04:18:22;;;;;;;;;;;;;;;9.63;81.78;99214.66;7346261;19;20392;-64
2023/04/12 04:20:49;;;;;;;;;;;;;;;9.61;81.53;99220.06;7349429;19;19930;-65
2023/04/12 04:23:16;;;;;;;;;;;;;;;9.58;81.02;99220.47;7348954;19;20067;-63
2023/04/12 04:25:43;;;;;;;;;;;;;;;9.58;81.25;99230.97;7350612;19;19984;-63
2023/04/12 04:28:10;;;;;;;;;;;;;;;9.56;80.81;99232.94;7350405;19;19930;-65
2023/04/12 04:30:37;;;;;;;;;;;;;;;9.52;80.38;99223.81;7352180;19;19925;-65
2023/04/12 04:33:05;;;;;;;;;;;;;;;9.43;80.62;99217.88;7346129;19;19923;-63
2023/04/12 04:35:33;;;;;;;;;;;;;;;9.42;80.92;99218.06;7343058;19;20261;-65
2023/04/12 04:38:00;;;;;;;;;;;;;;;9.40;80.62;99212.16;7349182;19;19995;-63
2023/04/12 04:40:27;;;;;;;;;;;;;;;9.39;81.80;99214.00;7351087;19;21804;-64
2023/04/12 04:42:54;;;;;;;;;;;;;;;9.42;82.43;99212.81;7350988;19;19930;-64
2023/04/12 04:45:25;;;;;;;;;;;;;;;9.39;81.90;99207.94;7353011;19;20553;-65
2023/04/12 04:47:52;;;;;;;;;;;;;;;9.40;82.58;99217.41;7354229;19;20194;-64
2023/04/12 04:50:21;;;;;;;;;;;;;;;9.40;83.04;99210.34;7357268;19;20397;-64
2023/04/12 04:52:49;;;;;;;;;;;;;;;9.37;82.34;99212.56;7357403;19;19921;-64
2023/04/12 04:55:17;;;;;;;;;;;;;;;9.32;81.86;99213.09;7353948;19;19939;-65
2023/04/12 04:57:44;;;;;;;;;;;;;;;9.28;82.11;99213.66;7354467;19;19943;-64
2023/04/12 05:00:12;;;;;;;;;;;;;;;9.22;82.36;99215.22;7359151;19;19929;-67
2023/04/12 05:02:41;;;;;;;;;;;;;;;9.17;82.19;99214.13;7353526;19;19921;-65
2023/04/12 05:05:09;;;;;;;;;;;;;;;9.15;83.29;99218.75;7354518;19;20515;-64
2023/04/12 05:07:37;;;;;;;;;;;;;;;9.13;82.54;99220.75;7352810;19;19925;-65
2023/04/12 05:10:04;;;;;;;;;;;;;;;9.09;81.76;99219.50;7360273;19;20277;-65
2023/04/12 05:12:32;;;;;;;;;;;;;;;9.03;81.79;99213.16;7355674;19;19918;-64
2023/04/12 05:15:00;;;;;;;;;;;;;;;9.05;82.45;99212.97;7353385;19;19919;-65
2023/04/12 05:17:30;;;;;;;;;;;;;;;9.05;82.40;99215.59;7351042;19;20274;-64
2023/04/12 05:19:57;;;;;;;;;;;;;;;9.02;82.14;99229.91;7358963;19;19922;-64
2023/04/12 05:22:25;;;;;;;;;;;;;;;9.01;81.69;99223.84;7359989;19;19923;-66
2023/04/12 05:24:52;;;;;;;;;;;;;;;9.02;82.50;99220.22;7353146;19;19926;-66
2023/04/12 05:27:18;;;;;;;;;;;;;;;9.05;83.11;99220.84;7354071;19;20015;-65
2023/04/12 05:29:46;;;;;;;;;;;;;;;9.09;83.39;99219.50;7358597;19;20478;-64
2023/04/12 05:32:13;;;;;;;;;;;;;;;9.09;83.03;99209.81;7356778;19;19922;-65
2023/04/12 05:34:41;;;;;;;;;;;;;;;9.09;81.82;99212.44;7349275;19;19923;-67
2023/04/12 05:37:08;;;;;;;;;;;;;;;9.11;82.04;99209.63;7350434;19;20336;-64
2023/04/12 05:39:35;;;;;;;;;;;;;;;9.07;80.92;99203.94;7358740;19;19930;-64
2023/04/12 05:42:02;;;;;;;;;;;;;;;9.07;80.96;99205.75;7354153;19;19911;-64
2023/04/12 05:44:29;;;;;;;;;;;;;;;9.10;82.04;99200.13;7353328;19;19918;-64
2023/04/12 05:46:56;;;;;;;;;;;;;;;9.10;80.96;99205.34;7352857;19;20093;-65
2023/04/12 05:49:23;;;;;;;;;;;;;;;9.13;81.27;99205.00;7355056;19;19926;-65
2023/04/12 05:51:50;;;;;;;;;;;;;;;9.12;80.93;99201.56;7354995;19;19919;-63
2023/04/12 05:54:19;;;;;;;;;;;;;;;9.11;80.30;99197.31;7351581;19;19923;-65
2023/04/12 05:56:46;;;;;;;;;;;;;;;9.10;80.13;99202.72;7349920;19;20324;-64
2023/04/12 05:59:13;;;;;;;;;;;;;;;9.09;80.33;99198.50;7355573;19;20357;-64
2023/04/12 06:01:43;;;;;;;;;;;;;;;9.08;79.67;99200.31;7355884;19;19930;-63
2023/04/12 06:04:10;;;;;;;;;;;;;;;9.11;78.96;99204.38;7354228;19;19922;-65
2023/04/12 06:06:37;;;;;;;;;;;;;;;9.16;79.34;99200.19;7351518;19;19915;-65
2023/04/12 06:09:04;;;;;;;;;;;;;;;9.21;79.03;99191.78;7352178;19;19922;-65
2023/04/12 06:11:32;;;;;;;;;;;;;;;9.24;79.09;99189.63;7355548;19;19923;-65
2023/04/12 06:14:00;;;;;;;;;;;;;;;9.30;79.86;99175.72;7352409;19;19915;-64
2023/04/12 06:16:28;;;;;;;;;;;;;;;9.35;78.58;99183.03;7347318;19;19918;-64
2023/04/12 06:18:55;;;;;;;;;;;;;;;9.36;78.24;99180.25;7353925;19;20308;-64
2023/04/12 06:21:23;;;;;;;;;;;;;;;9.44;79.08;99184.56;7354427;19;19918;-64
2023/04/12 06:23:50;;;;;;;;;;;;;;;9.48;77.50;99192.88;7351456;19;20030;-65
2023/04/12 06:26:17;;;;;;;;;;;;;;;9.54;77.38;99198.22;7349742;19;19926;-65
2023/04/12 06:28:44;;;;;;;;;;;;;;;9.63;77.14;99183.94;7350444;19;19923;-67
2023/04/12 06:31:14;;;;;;;;;;;;;;;9.76;76.75;99185.88;7352974;19;19952;-64
2023/04/12 06:33:41;;;;;;;;;;;;;;;9.86;76.33;99189.00;7354147;19;20522;-65
2023/04/12 06:36:10;;;;;;;;;;;;;;;9.97;76.37;99190.31;7347034;19;19919;-64
2023/04/12 06:38:37;;;;;;;;;;;;;;;10.03;74.93;99192.19;7351603;19;19922;-65
2023/04/12 06:41:05;;;;;;;;;;;;;;;10.08;74.61;99187.16;7353863;19;19922;-65
2023/04/12 06:43:32;;;;;;;;;;;;;;;10.11;75.08;99190.22;7352754;19;19918;-65
2023/04/12 06:46:01;;;;;;;;;;;;;;;10.18;75.05;99188.50;7352687;19;19919;-65
2023/04/12 06:48:28;;;;;;;;;;;;;;;10.26;74.35;99182.25;7354432;19;20625;-65
2023/04/12 06:50:56;;;;;;;;;;;;;;;10.37;72.90;99181.75;7356220;19;21320;-65
2023/04/12 06:53:23;;;;;;;;;;;;;;;10.60;73.27;99174.41;7353472;19;19918;-65
2023/04/12 06:55:50;;;;;;;;;;;;;;;10.78;71.88;99166.00;7354176;19;20279;-64
2023/04/12 06:58:17;;;;;;;;;;;;;;;10.87;72.12;99169.28;7352773;19;19968;-65
2023/04/12 07:00:44;;;;;;;;;;;;;;;10.81;70.99;99163.00;7355018;19;19978;-65
2023/04/12 07:03:11;;;;;;;;;;;;;;;10.77;70.94;99158.31;7351099;19;19930;-64
2023/04/12 07:05:38;;;;;;;;;;;;;;;10.66;70.63;99154.41;7349128;19;19911;-65
2023/04/12 07:08:06;;;;;;;;;;;;;;;10.62;71.45;99148.72;7349610;19;19926;-64
2023/04/12 07:10:34;;;;;;;;;;;;;;;10.57;71.12;99155.56;7355154;19;19927;-65
2023/04/12 07:13:05;;;;;;;;;;;;;;;10.81;72.05;99149.03;7352588;19;19998;-63
2023/04/12 07:15:33;;;;;;;;;;;;;;;11.11;70.14;99148.53;7349192;19;21148;-64
2023/04/12 07:18:00;;;;;;;;;;;;;;;11.42;69.24;99152.47;7349419;19;19954;-65
2023/04/12 07:20:27;;;;;;;;;;;;;;;11.42;67.76;99147.19;7352207;19;19947;-64
2023/04/12 07:22:54;;;;;;;;;;;;;;;11.45;69.20;99144.97;7349401;19;19911;-66
2023/04/12 07:25:21;;;;;;;;;;;;;;;11.50;68.75;99136.44;7350049;19;20019;-66
2023/04/12 07:27:49;;;;;;;;;;;;;;;11.70;69.15;99131.19;7350288;19;20408;-66
2023/04/12 07:30:17;;;;;;;;;;;;;;;12.18;68.62;99134.47;7350731;19;21130;-66
2023/04/12 07:32:44;;;;;;;;;;;;;;;12.53;66.47;99135.00;7353069;19;22090;-64
2023/04/12 07:35:12;;;;;;;;;;;;;;;12.84;64.38;99138.56;7352937;19;19919;-65
2023/04/12 07:37:39;;;;;;;;;;;;;;;13.07;63.95;99130.09;7346279;19;19966;-65
2023/04/12 07:40:07;;;;;;;;;;;;;;;13.43;62.38;99128.72;7350745;19;20013;-64
2023/04/12 07:42:34;;;;;;;;;;;;;;;13.84;61.63;99129.03;7357165;19;20283;-65
2023/04/12 07:45:01;;;;;;;;;;;;;;;14.26;59.58;99134.56;7353615;19;19914;-65
2023/04/12 07:47:28;;;;;;;;;;;;;;;14.61;58.70;99134.84;7346299;19;20324;-66
2023/04/12 07:49:56;;;;;;;;;;;;;;;14.88;57.80;99136.16;7348519;19;19944;-66
2023/04/12 07:52:23;;;;;;;;;;;;;;;15.49;55.70;99133.25;7351793;19;19958;-66
2023/04/12 07:54:51;;;;;;;;;;;;;;;16.08;53.85;99127.06;7347469;19;20536;-65
2023/04/12 07:57:20;;;;;;;;;;;;;;;16.21;51.56;99129.47;7346203;19;20284;-65
2023/04/12 07:59:47;;;;;;;;;;;;;;;16.45;50.54;99129.47;7352644;19;20021;-64
2023/04/12 08:02:23;;;;;;;;;;;;;;;16.36;50.47;99120.22;7349929;19;19927;-66
2023/04/12 08:04:51;;;;;;;;;;;;;;;16.30;49.98;99118.50;7344914;19;20014;-65
2023/04/12 08:07:18;;;;;;;;;;;;;;;16.66;48.50;99123.56;7347251;19;19926;-65
2023/04/12 08:09:46;;;;;;;;;;;;;;;16.67;47.97;99115.34;7352410;19;19923;-66
2023/04/12 08:12:13;;;;;;;;;;;;;;;16.84;48.94;99099.50;7355622;19;19925;-65
2023/04/12 08:14:41;;;;;;;;;;;;;;;17.02;47.25;99104.63;7350408;19;19919;-64
2023/04/12 08:17:09;;;;;;;;;;;;;;;16.99;45.67;99098.97;7347916;19;21507;-64
2023/04/12 08:19:36;;;;;;;;;;;;;;;16.17;46.96;99090.34;7355119;19;20188;-65
2023/04/12 08:22:04;;;;;;;;;;;;;;;15.41;49.73;99096.47;7356061;19;19922;-65
2023/04/12 08:24:36;;;;;;;;;;;;;;;14.79;51.57;99087.16;7354619;19;20540;-65
2023/04/12 08:27:03;;;;;;;;;;;;;;;14.35;52.33;99102.31;7357377;19;19950;-66
2023/04/12 08:29:30;;;;;;;;;;;;;;;14.05;53.84;99088.16;7360572;19;19933;-65
2023/04/12 08:32:00;;;;;;;;;;;;;;;13.88;55.23;99089.72;7353279;19;19915;-64
2023/04/12 08:34:45;;;;;;;;;;;;;;;13.64;54.33;99081.59;7357279;19;19979;-67
2023/04/12 08:37:18;;;;;;;;;;;;;;;13.49;54.85;99089.03;7349593;19;19952;-65
2023/04/12 08:39:47;;;;;;;;;;;;;;;13.27;54.31;99075.38;7351945;19;19926;-65
2023/04/12 08:42:15;;;;;;;;;;;;;;;13.23;54.81;99070.72;7359617;19;19939;-65
2023/04/12 08:44:43;;;;;;;;;;;;;;;13.21;55.06;99070.94;7356014;19;20000;-65
2023/04/12 08:47:10;;;;;;;;;;;;;;;13.17;55.93;99080.31;7352278;19;20365;-65
2023/04/12 08:49:37;;;;;;;;;;;;;;;13.14;55.12;99067.56;7355141;19;19943;-66
2023/04/12 08:52:05;;;;;;;;;;;;;;;13.12;54.06;99066.94;7356073;19;20246;-64
2023/04/12 08:54:33;;;;;;;;;;;;;;;13.02;54.73;99068.41;7353159;19;20248;-65
2023/04/12 08:57:01;;;;;;;;;;;;;;;13.05;55.61;99083.81;7356959;19;19919;-65
2023/04/12 08:59:29;;;;;;;;;;;;;;;13.00;54.90;99071.25;7353765;19;19919;-66
2023/04/12 09:01:57;;;;;;;;;;;;;;;13.00;54.58;99059.91;7355567;19;19957;-65
2023/04/12 09:04:25;;;;;;;;;;;;;;;12.96;55.64;99058.66;7355920;19;19915;-66
2023/04/12 09:06:52;;;;;;;;;;;;;;;12.88;54.17;99053.66;7352693;19;19919;-65
2023/04/12 09:09:39;;;;;;;;;;;;;;;12.75;55.88;99060.59;7356809;19;19919;-65
2023/04/12 09:12:07;;;;;;;;;;;;;;;12.62;55.99;99054.59;7359477;19;20511;-65
2023/04/12 09:14:34;;;;;;;;;;;;;;;12.52;56.07;99051.59;7357444;19;19921;-65
2023/04/12 09:17:02;;;;;;;;;;;;;;;12.52;57.52;99056.88;7351706;19;20516;-64
2023/04/12 09:19:30;;;;;;;;;;;;;;;12.53;58.36;99061.94;7355782;19;19954;-65
2023/04/12 09:21:58;;;;;;;;;;;;;;;12.56;58.80;99050.16;7355455;19;20191;-64
2023/04/12 09:24:25;;;;;;;;;;;;;;;12.50;59.84;99043.06;7354702;19;20515;-65
2023/04/12 09:26:56;;;;;;;;;;;;;;;12.40;59.31;99040.88;7358655;19;19982;-66
2023/04/12 09:29:24;;;;;;;;;;;;;;;12.45;59.61;99048.97;7354328;19;20229;-64
2023/04/12 09:31:58;;;;;;;;;;;;;;;12.50;58.39;99048.34;7351743;19;21533;-64
2023/04/12 09:34:25;;;;;;;;;;;;;;;12.54;59.41;99050.38;7353037;19;19918;-65
2023/04/12 09:36:53;;;;;;;;;;;;;;;12.59;59.34;99047.91;7354090;19;19954;-65
2023/04/12 09:39:24;;;;;;;;;;;;;;;12.66;59.54;99066.34;7350639;19;20373;-65
2023/04/12 09:42:03;;;;;;;;;;;;;;;12.77;58.00;99050.66;7352032;19;19919;-65
2023/04/12 09:44:30;;;;;;;;;;;;;;;12.90;58.21;99051.63;7352730;19;19982;-64
2023/04/12 09:46:59;;;;;;;;;;;;;;;12.99;56.73;99045.88;7350002;19;19994;-66
2023/04/12 09:49:29;;;;;;;;;;;;;;;13.00;55.28;99038.78;7354048;19;20380;-65
2023/04/12 09:51:57;;;;;;;;;;;;;;;13.08;55.80;99039.31;7355109;19;19978;-65
2023/04/12 09:54:25;;;;;;;;;;;;;;;13.08;54.93;99026.13;7353059;19;19939;-64
2023/04/12 09:56:53;;;;;;;;;;;;;;;13.15;55.10;99029.56;7349644;19;19925;-68
2023/04/12 09:59:21;;;;;;;;;;;;;;;13.17;53.42;99022.22;7356353;19;19931;-65
2023/04/12 10:01:50;;;;;;;;;;;;;;;13.27;53.77;99019.09;7352035;19;19963;-65
2023/04/12 10:04:22;;;;;;;;;;;;;;;13.40;55.44;99016.38;7348475;19;21211;-64
2023/04/12 10:06:50;;;;;;;;;;;;;;;13.42;53.59;99000.28;7354430;19;19915;-65
2023/04/12 10:09:17;;;;;;;;;;;;;;;13.34;53.98;98997.91;7353634;19;19915;-65
2023/04/12 10:11:45;;;;;;;;;;;;;;;13.23;54.40;98999.44;7354529;19;19987;-65
2023/04/12 10:14:13;;;;;;;;;;;;;;;13.13;54.63;98994.63;7352496;19;20352;-65
2023/04/12 10:16:44;;;;;;;;;;;;;;;13.05;54.12;99000.16;7349715;19;20281;-67
2023/04/12 10:19:12;;;;;;;;;;;;;;;13.00;54.24;98994.69;7353514;19;19919;-65
2023/04/12 10:21:39;;;;;;;;;;;;;;;13.11;54.70;98985.25;7354001;19;19933;-65
2023/04/12 10:24:08;;;;;;;;;;;;;;;13.19;54.39;98988.50;7351226;19;19929;-66
2023/04/12 10:26:40;;;;;;;;;;;;;;;13.29;53.33;98972.16;7351167;19;19929;-65
2023/04/12 10:29:12;;;;;;;;;;;;;;;13.37;51.08;98971.06;7352419;19;19915;-65
2023/04/12 10:31:41;;;;;;;;;;;;;;;13.36;49.94;98980.03;7354474;19;19923;-64
2023/04/12 10:34:08;;;;;;;;;;;;;;;13.32;47.58;98971.72;7351075;19;20253;-65
2023/04/12 10:36:38;;;;;;;;;;;;;;;13.28;47.64;98962.59;7352496;19;20432;-65
2023/04/12 10:39:08;;;;;;;;;;;;;;;13.32;47.88;98933.91;7351663;19;19911;-64
2023/04/12 10:41:36;;;;;;;;;;;;;;;13.35;48.97;98942.25;7347978;19;19936;-64
2023/04/12 10:44:07;;;;;;;;;;;;;;;13.34;47.65;98914.19;7356114;19;19927;-65
2023/04/12 10:46:36;;;;;;;;;;;;;;;13.35;49.04;98922.94;7350461;19;20268;-64
2023/04/12 10:49:06;;;;;;;;;;;;;;;13.37;51.01;98919.03;7351644;19;19930;-65
2023/04/12 10:51:34;;;;;;;;;;;;;;;13.37;46.98;98892.63;7353887;19;19943;-66
2023/04/12 10:54:06;;;;;;;;;;;;;;;13.24;46.30;98909.41;7353590;19;20239;-64
2023/04/12 10:56:37;;;;;;;;;;;;;;;13.31;46.04;98898.78;7349450;19;19926;-65
2023/04/12 10:59:07;;;;;;;;;;;;;;;13.41;45.86;98920.22;7350112;19;19919;-64
2023/04/12 11:01:35;;;;;;;;;;;;;;;13.47;46.99;98900.84;7354197;19;20552;-65
2023/04/12 11:04:09;;;;;;;;;;;;;;;13.56;47.37;98899.53;7358848;19;20457;-65
2023/04/12 11:06:42;;;;;;;;;;;;;;;13.62;47.71;98900.47;7354509;19;20203;-65
2023/04/12 11:09:12;;;;;;;;;;;;;;;13.69;45.76;98891.47;7357020;19;20536;-64
2023/04/12 11:11:40;;;;;;;;;;;;;;;13.77;45.65;98889.53;7361470;19;19926;-67
2023/04/12 11:14:12;;;;;;;;;;;;;;;13.76;47.08;98895.88;7353855;19;20288;-65
2023/04/12 11:16:47;;;;;;;;;;;;;;;13.76;46.16;98887.94;7351341;19;19919;-65
2023/04/12 11:19:16;;;;;;;;;;;;;;;13.71;45.66;98881.47;7352223;19;19923;-65
2023/04/12 11:21:43;;;;;;;;;;;;;;;13.73;46.61;98880.44;7359124;19;20388;-65
2023/04/12 11:24:13;;;;;;;;;;;;;;;13.83;45.61;98865.66;7356795;19;20220;-65
2023/04/12 11:26:41;;;;;;;;;;;;;;;13.85;45.94;98881.31;7352602;19;20597;-64
2023/04/12 11:29:11;;;;;;;;;;;;;;;13.85;44.84;98865.47;7354540;19;19994;-65
2023/04/12 11:31:39;;;;;;;;;;;;;;;13.88;44.53;98865.81;7355528;19;20340;-66
2023/04/12 11:34:06;;;;;;;;;;;;;;;13.92;45.74;98852.94;7351587;19;20371;-65
2023/04/12 11:36:34;;;;;;;;;;;;;;;13.84;44.97;98843.50;7351837;19;19915;-64
2023/04/12 11:39:03;;;;;;;;;;;;;;;13.81;44.91;98849.25;7357085;19;20305;-64
2023/04/12 11:41:30;;;;;;;;;;;;;;;13.80;46.38;98860.03;7351827;19;19963;-65
2023/04/12 11:44:02;;;;;;;;;;;;;;;13.93;48.22;98850.09;7353005;19;19941;-64
2023/04/12 11:46:33;;;;;;;;;;;;;;;13.94;48.61;98842.97;7349804;19;19952;-65
2023/04/12 11:49:00;;;;;;;;;;;;;;;13.89;48.42;98845.47;7353674;19;19918;-65
2023/04/12 11:51:31;;;;;;;;;;;;;;;13.86;50.02;98864.44;7354758;19;19942;-64
2023/04/12 11:54:05;;;;;;;;;;;;;;;13.67;48.62;98839.84;7355892;19;19959;-64
2023/04/12 11:56:41;;;;;;;;;;;;;;;13.56;50.80;98828.19;7360549;19;19926;-65
2023/04/12 11:59:10;;;;;;;;;;;;;;;13.62;51.94;98839.69;7365489;19;20840;-64
2023/04/12 12:01:38;;;;;;;;;;;;;;;13.57;51.61;98815.78;7357480;19;20367;-64
2023/04/12 12:04:06;;;;;;;;;;;;;;;13.49;52.22;98843.31;7360056;19;20490;-64
2023/04/12 12:06:33;;;;;;;;;;;;;;;13.41;54.11;98834.88;7361883;19;19922;-67
2023/04/12 12:09:02;;;;;;;;;;;;;;;13.41;57.50;98824.31;7362573;19;19923;-65
2023/04/12 12:11:31;;;;;;;;;;;;;;;13.40;59.11;98788.34;7362213;19;19919;-64
2023/04/12 12:13:59;;;;;;;;;;;;;;;13.38;57.92;98778.00;7363576;19;19914;-65
2023/04/12 12:16:28;;;;;;;;;;;;;;;13.35;57.32;98773.19;7358609;19;20333;-64
2023/04/12 12:18:56;;;;;;;;;;;;;;;13.34;56.14;98781.31;7356782;19;20249;-64
2023/04/12 12:21:25;;;;;;;;;;;;;;;13.37;56.91;98820.47;7357670;19;19919;-66
2023/04/12 12:23:55;;;;;;;;;;;;;;;13.42;61.49;98820.63;7355374;19;19914;-65
2023/04/12 12:26:24;;;;;;;;;;;;;;;13.43;63.46;98785.25;7353406;19;21714;-64
2023/04/12 12:28:55;;;;;;;;;;;;;;;13.35;61.83;98767.91;7354293;19;19918;-64
2023/04/12 12:31:25;;;;;;;;;;;;;;;13.32;60.77;98770.97;7358448;19;20394;-65
2023/04/12 12:33:55;;;;;;;;;;;;;;;13.27;58.43;98755.78;7352119;19;20997;-65
2023/04/12 12:36:27;;;;;;;;;;;;;;;13.19;57.08;98761.38;7354795;19;19919;-65
2023/04/12 12:38:55;;;;;;;;;;;;;;;13.21;57.15;98755.84;7358726;19;19926;-65
2023/04/12 12:41:24;;;;;;;;;;;;;;;13.22;57.92;98733.69;7354435;19;19926;-64
2023/04/12 12:43:51;;;;;;;;;;;;;;;13.30;56.85;98727.31;7353274;19;19915;-65
2023/04/12 12:46:19;;;;;;;;;;;;;;;13.37;57.69;98720.91;7352910;19;19919;-64
2023/04/12 12:48:47;;;;;;;;;;;;;;;13.48;57.27;98714.88;7356651;19;19915;-64
2023/04/12 12:53:46;;;;;;;;;;;;;;;13.61;56.98;98706.75;7357637;19;20328;-65
2023/04/12 12:56:14;;;;;;;;;;;;;;;13.58;58.10;98687.91;7353583;19;19923;-67
2023/04/12 12:58:42;;;;;;;;;;;;;;;13.52;60.96;98713.41;7355149;19;19923;-64